ADDS METAR Data INFO
IDs: Format: Raw Decoded Include TAF

Data at: 1015 UTC 14 Dec 2017

PAQT 140953Z AUTO 06029G35KT 1/4SM SN FZFG VV005 M13/M14 A2972 RMK PK WND 05038/0928 SLP065 P0000 T11331144 TSNO VIA AUTODIAL
PAQT 140853Z AUTO 05028G39KT 1/4SM -SN FZFG VV006 M14/M15 A2972 RMK PK WND 06039/0824 UPB29E36SNE29B42 SLP064 P0000 60000 T11391150 411171144 58022 TSNO VIA AUTODIAL
PAQT 140753Z AUTO 05027G35KT 1/4SM -SN FZFG VV007 M14/M15 A2975 RMK PK WND 05040/0705 SLP074 P0000 T11391150 TSNO VIA AUTODIAL
PAQT 140653Z AUTO 05029G35KT 1/4SM -SN FZFG VV007 M14/M15 A2976 RMK PK WND 06036/0556 SLP081 P0000 T11391150 TSNO VIA AUTODIAL
PAQT 140553Z AUTO 05025G36KT 1/4SM -SN FZFG VV006 M14/M15 A2978 RMK PK WND 06038/0536 SNB29 SLP086 P0000 60000 T11391150 11133 21144 58020 TSNO VIA AUTODIAL
PAQT 140453Z AUTO 05028G36KT 1/4SM FZFG BLSN OVC009 M14/M16 A2980 RMK PK WND 05037/0430 SNE11 SLP091 P0000 T11441156 TSNO VIA AUTODIAL
PAQT 140426Z AUTO 05027G35KT 1/4SM FZFG BLSN OVC009 M14/M16 A2980 RMK PK WND 05035/0418 SNE11 P0000 T11441156 TSNO VIA AUTODIAL
PAQT 140406Z AUTO 05024G33KT 1/4SM -SN FZFG OVC010 M14/M16 A2981 RMK PK WND 05033/0404 P0000 T11391156 TSNO VIA AUTODIAL
PAQT 140353Z AUTO 05025G34KT 1/4SM -SN FZFG OVC008 M14/M15 A2983 RMK PK WND 05035/0318 SLP101 P0000 T11391150 TSNO VIA AUTODIAL
PAQT 140253Z AUTO 05026G34KT 1/4SM -SN FZFG BKN005 OVC010 M14/M15 A2984 RMK PK WND 06039/0243 SLP106 P0000 60000 T11391150 58020 TSNO VIA AUTODIAL
PAQT 140153Z AUTO 06027G33KT 1/4SM -SN FZFG VV007 M14/M14 A2987 RMK PK WND 06035/0115 SLP116 P0000 T11391144 TSNO VIA AUTODIAL
PAQT 140108Z AUTO 06025G33KT 1/4SM -SN FZFG OVC009 M13/M14 A2989 RMK PK WND 06033/0059 P0000 T11331144 TSNO VIA AUTODIAL
PAQT 140053Z AUTO 06026KT 1/4SM -SN FZFG OVC010 M13/M14 A2990 RMK PK WND 06036/2359 SLP125 P0000 T11331144 TSNO VIA AUTODIAL
PAQT 140051Z AUTO 06026KT 1/4SM -SN FZFG OVC010 M13/M14 A2990 RMK PK WND 06036/2359 P0000 TSNO VIA AUTODIAL
PAQT 132353Z AUTO 06028G37KT 1/4SM -SN FZFG BKN007 OVC011 M13/M14 A2992 RMK PK WND 06037/2349 SLP132 P0000 60000 T11331144 11117 21133 56022 TSNO VIA AUTODIAL
PAQT 132253Z AUTO 05024G32KT 1/4SM -SN FZFG OVC009 M13/M14 A2993 RMK PK WND 06033/2239 SNB49 SLP137 P0000 T11281139 TSNO VIA AUTODIAL
PAQT 132153Z AUTO 06023KT 1/2SM FZFG BLSN OVC008 M13/M14 A2996 RMK PK WND 06030/2144 SLP148 T11281139 TSNO VIA AUTODIAL
PAQT 132053Z AUTO 06023G31KT 1/2SM FZFG BLSN OVC006 M13/M14 A2998 RMK PK WND 07031/1957 UPB24E25SNE24B26E49 SLP154 P0000 60000 T11281139 55007 TSNO VIA AUTODIAL
PAQT 131953Z AUTO 06028G33KT 1/4SM -SN FZFG VV007 M12/M13 A2997 RMK PK WND 07035/1917 SLP152 P0000 T11221133 TSNO VIA AUTODIAL
PAQT 131853Z AUTO 07026G31KT 1/4SM -SN FZFG OVC008 M12/M13 A2999 RMK PK WND 06034/1818 SNB00 SLP156 P0000 T11221133 TSNO VIA AUTODIAL
PAQT 131753Z AUTO 06029G35KT 1/2SM FZFG BLSN OVC009 M12/M13 A3000 RMK PK WND 06035/1744 SNB02E47 SLP161 P0000 60000 T11171128 11117 21122 58019 TSNO VIA AUTODIAL
PAQT 131653Z AUTO 06026KT 1/2SM FZFG BLSN OVC009 M12/M13 A3003 RMK PK WND 07032/1646 SNB13E20 SLP171 P0000 T11171128 TSNO VIA AUTODIAL
PAQT 131625Z AUTO 06019KT 3/4SM BLSN BR OVC009 M12/M13 A3005 RMK SNB13E20 P0000 T11171128 TSNO VIA AUTODIAL
PAQT 131553Z AUTO 06019G25KT 1SM BLSN BR OVC009 M12/M13 A3006 RMK PK WND 06027/1506 SLP181 T11171128 TSNO VIA AUTODIAL
PAQT 131453Z AUTO 06021G27KT 1SM BLSN BR OVC009 M12/M13 A3006 RMK PK WND 06029/1355 SLP180 60000 T11221133 57003 TSNO VIA AUTODIAL
PAQT 131451Z AUTO 06021G27KT 1SM BLSN BR OVC009 M12/M13 A3006 RMK PK WND 06029/1355 TSNO VIA AUTODIAL
PAQT 131434Z AUTO 06019KT 1SM BLSN BR OVC010 M12/M13 A3007 RMK PK WND 06029/1355 T11221133 TSNO VIA AUTODIAL
PAQT 131406Z AUTO 07024G28KT 1SM BLSN BR OVC009 M12/M13 A3007 RMK PK WND 06029/1355 T11221133 TSNO VIA AUTODIAL
PAQT 131353Z AUTO 07026KT 3/4SM BLSN BR OVC009 M12/M13 A3006 RMK PK WND 06031/1330 SNE1259 SLP182 P0000 T11221133 TSNO VIA AUTODIAL
PAQT 131313Z AUTO 06021G27KT 3/4SM BLSN BR OVC009 M12/M13 A3005 RMK PK WND 07027/1306 SNE1259 P0000 T11221133 TSNO VIA AUTODIAL
PAQT 131306Z AUTO 06022G27KT 1SM BLSN BR OVC008 M12/M13 A3005 RMK PK WND 07027/1306 SNE1259 P0000 T11221133 TSNO VIA AUTODIAL
PAQT 131253Z AUTO 06020G27KT 3/4SM -SN BR OVC007 M12/M13 A3006 RMK PK WND 05027/1207 SNB27 SLP181 P0000 T11221133 TSNO VIA AUTODIAL
PAQT 131232Z AUTO 05017KT 3/4SM -SN BR OVC007 M12/M13 A3006 RMK PK WND 05027/1207 SNB27 P0000 T11221133 TSNO VIA AUTODIAL
PAQT 131153Z AUTO 06020KT 1SM BLSN BR OVC008 M12/M13 A3007 RMK PK WND 05026/1143 SLP183 60000 T11221133 11122 21133 58002 TSNO VIA AUTODIAL
PAQT 131118Z AUTO 06019KT 1 3/4SM BLSN BR OVC007 M12/M13 A3007 RMK PK WND 06026/1059 T11221133 TSNO VIA AUTODIAL
PAQT 131108Z AUTO 05019KT 2SM BLSN BR OVC008 M12/M13 A3007 RMK PK WND 06026/1059 T11221133 TSNO VIA AUTODIAL
PAQT 131101Z AUTO 06021G26KT 3SM BLSN BR OVC008 M12/M13 A3007 RMK PK WND 06026/1059 T11221133 TSNO VIA AUTODIAL
PAQT 131053Z AUTO 06019G25KT 2 1/2SM BLSN BR OVC008 M12/M13 A3007 RMK SLP184 T11221133 TSNO VIA AUTODIAL
PAQT 131005Z AUTO 06017KT 2SM BLSN BR OVC008 M12/M13 A3008 RMK T11221133 TSNO VIA AUTODIAL
PAQT 130953Z AUTO 06019KT 1 3/4SM BLSN BR OVC008 M12/M13 A3007 RMK SNE0858 SLP185 P0000 T11221133 TSNO VIA AUTODIAL
PAQT 130951Z AUTO 06017KT 1 3/4SM BLSN BR OVC008 M13/M14 A3007 RMK SNE0858 P0000 TSNO VIA AUTODIAL
PAQT 130931Z AUTO 06018KT 2SM BLSN BR OVC008 M13/M14 A3006 RMK SNE0858 P0000 T11281139 TSNO VIA AUTODIAL
PAQT 130853Z AUTO 06020G25KT 1 1/4SM -SN BR OVC009 M13/M14 A3006 RMK PK WND 05026/0759 SNB46 SLP180 P0000 60000 T11281139 411281144 53005 TSNO VIA AUTODIAL
PAQT 130829Z AUTO 06018KT 1 1/2SM BLSN BR OVC009 M13/M14 A3005 RMK PK WND 05026/0759 T11281139 TSNO VIA AUTODIAL
PAQT 130753Z AUTO 05020KT 1 3/4SM BLSN BR OVC010 M13/M14 A3004 RMK PK WND 06026/0731 SNE00 SLP175 P0000 T11281144 TSNO VIA AUTODIAL
PAQT 130743Z AUTO 05017KT 1 3/4SM BLSN BR OVC010 M13/M14 A3005 RMK PK WND 06026/0731 SNE00 P0000 T11281144 TSNO VIA AUTODIAL
PAQT 130709Z AUTO 05020KT 2SM BLSN BR OVC009 M13/M14 A3004 RMK SNE00 P0000 T11281144 TSNO VIA AUTODIAL
PAQT 130653Z AUTO 05018KT 1 3/4SM -SN BR OVC009 M13/M14 A3004 RMK SNB49 SLP175 P0000 T11331144 TSNO VIA AUTODIAL
PAQT 130650Z AUTO 05017KT 1 3/4SM -SN BR OVC009 M13/M14 A3004 RMK SNB49 P0000 TSNO VIA AUTODIAL
PAQT 130553Z AUTO 06016KT 2 1/2SM BLSN BR OVC008 M13/M14 A3004 RMK SLP174 T11331144 11133 21144 53016 TSNO VIA AUTODIAL
PAQT 130453Z AUTO 05017KT 2 1/2SM BLSN BR OVC009 M13/M15 A3001 RMK SLP165 T11331150 TSNO VIA AUTODIAL
PAQT 130435Z AUTO 05018KT 2 1/2SM BLSN BR OVC009 M13/M15 A3001 RMK T11331150 TSNO VIA AUTODIAL
PAQT 130407Z AUTO 05018KT 3SM BLSN BR OVC009 M14/M15 A3001 RMK T11391150 TSNO VIA AUTODIAL
PAQT 130353Z AUTO 05016KT 3SM BLSN BR OVC010 M14/M15 A3001 RMK SLP162 T11391150 TSNO VIA AUTODIAL
PAQT 130253Z AUTO 06016KT 4SM BLSN BR OVC010 M14/M16 A2999 RMK SLP157 T11391156 53007 TSNO VIA AUTODIAL
PAQT 130153Z AUTO 06015KT 3SM BLSN BR OVC010 M14/M15 A2998 RMK SLP155 T11391150 TSNO VIA AUTODIAL
PAQT 130120Z AUTO 06018KT 3SM BLSN BR OVC010 M14/M16 A2997 RMK T11441156 TSNO VIA AUTODIAL
PAQT 130105Z AUTO 06016G25KT 2 1/2SM BLSN BR OVC011 M14/M16 A2996 RMK T11441156 TSNO VIA AUTODIAL
PAQT 130053Z AUTO 06018KT 4SM BLSN BR OVC011 M14/M16 A2996 RMK SLP148 T11391156 TSNO VIA AUTODIAL
PAQT 122353Z AUTO 06017KT 4SM BLSN BR OVC012 M14/M16 A2997 RMK SLP151 60000 T11391156 11139 21144 51015 TSNO VIA AUTODIAL
PAQT 122253Z AUTO 06018KT 3SM BLSN BR OVC013 M14/M16 A2996 RMK SLP147 T11441156 TSNO VIA AUTODIAL